Terminal Aerodrome Forecast
Issued by NWS

Home | Current Version | Previous Version | Text Only | Print | Product List | Glossary On
Versions: 1 2 3 4 5 6 7 8 9 10 11 12 13 14 15 16 17 18 19
000
FTUS42 KMHX 302338
TAFOAJ
TAF
KOAJ 302338Z 0100/0124 18008KT P6SM FEW250
     FM010800 18007KT P6SM FEW006 SCT020
      TEMPO 0108/0112 OVC015
     FM011400 19013KT P6SM SCT060
     FM012100 20017G27KT P6SM SCT060
      AMD LTD TO CLD VIS AND WIND=

USA.gov is the U.S. government's official web portal to all federal, state and local government web resources and services.